Palacios, TX

4:40 AM CST on December 26, 2014 (GMT -0600)
Wharton Regional | Change Station
CLOSE
Current Station
Airport
Location: Wharton,
Elevation: 102 ft
Nearby Weather Stations

Elev 102 ft 29.25 °N, 96.15 °W | Updated 5 minutes ago

Overcast
Overcast
60 °F
Feels Like 60 °F
N
4
Wind Variable Wind from SE

Today
High -- | Low -- °F
--% Chance of Precip.
Yesterday
High -- | Low -- °F
Precip. -- in
7:15 AM 5:35 PM
Waxing Crescent, 24% visible
Pressure 30.00 in
Visibility 5.0 miles
Clouds Scattered Clouds 2300 ft
Mostly Cloudy 3000 ft
Overcast 3700 ft
Dew Point 56 °F
Humidity 88%
Rainfall 0.00 in
Snow Depth Not available.
UV 0 out of 12
Pollen 7.80 out of 12
Air Quality Not available.
Flu Activity Not available.
METAR KARM 261035Z AUTO 13003KT 5SM -DZ SCT023 BKN030 OVC037 16/14 A3000 RMK AO2 T01550135

More Conditions Fewer Conditions

Pressure 30.00 in
Visibility 5.0 miles
Clouds Scattered Clouds 2300 ft
Mostly Cloudy 3000 ft
Overcast 3700 ft
Dew Point 56 °F
Humidity 88%
Rainfall 0.00 in
Snow Depth Not available.
UV 0 out of 12
Pollen 7.80 out of 12
Air Quality Not available.
Flu Activity Not available.
METAR KARM 261035Z AUTO 13003KT 5SM -DZ SCT023 BKN030 OVC037 16/14 A3000 RMK AO2 T01550135

More Conditions Fewer Conditions

10-Day Weather Forecast

Almanac

Astronomy

Dec. 26, 2014 Rise Set
Actual Time
Civil Twilight
Nautical Twilight
Astronomical Twilight
Moon
Length of Visible Light
Length of Day
Tomorrow will be .
, % of the Moon is Illuminated

Today's Extremes

State Highs State Lows

Community

WunderPhotos

Upload Photos

1,780,579 photos uploaded!

WunderBlogs® & News

Nearby

Air Quality

  Air Quality AQ Index Pollutant
Not available.

Snow Depth

Station Depth Elevation

Earthquake Activity

City Distance Mag. Time & Date
Minimum magnitude displayed is 2.5.

Coastal Water Temperatures

Place Temperature

Nearby Weather Stations